createdAt,value
2022-09-09T00:00:37.832Z,676.55
2022-09-09T00:01:37.823Z,676.56
2022-09-09T00:02:37.907Z,676.56
2022-09-09T00:03:37.837Z,676.57
2022-09-09T00:04:37.791Z,676.56
2022-09-09T00:05:37.763Z,676.56
2022-09-09T00:06:37.751Z,676.55
2022-09-09T00:07:37.739Z,676.55
2022-09-09T00:08:37.731Z,676.55
2022-09-09T00:09:37.732Z,676.56
2022-09-09T00:10:37.751Z,676.55
2022-09-09T00:11:37.699Z,676.55
2022-09-09T00:12:37.694Z,676.56
2022-09-09T00:13:37.671Z,676.56
2022-09-09T00:14:37.683Z,676.56
2022-09-09T00:15:37.694Z,676.55
2022-09-09T00:16:37.651Z,676.56
2022-09-09T00:17:37.631Z,676.56
2022-09-09T00:18:37.632Z,676.55
2022-09-09T00:19:37.615Z,676.56
2022-09-09T00:20:37.623Z,676.55
2022-09-09T00:21:37.586Z,676.55
2022-09-09T00:22:37.583Z,676.54
2022-09-09T00:23:37.564Z,676.55
2022-09-09T00:24:37.555Z,676.55
2022-09-09T00:25:37.555Z,676.55
2022-09-09T00:26:37.544Z,676.57
2022-09-09T00:27:37.516Z,676.56
2022-09-09T00:28:37.507Z,676.57
2022-09-09T00:29:37.507Z,676.56
2022-09-09T00:30:37.544Z,676.56
2022-09-09T00:31:37.483Z,676.56
2022-09-09T00:32:37.469Z,676.56
2022-09-09T00:33:37.455Z,676.55
2022-09-09T00:34:37.475Z,676.57
2022-09-09T00:35:37.428Z,676.56
2022-09-09T00:36:37.435Z,676.55
2022-09-09T00:37:37.403Z,676.56
2022-09-09T00:38:37.395Z,676.54
2022-09-09T00:39:37.438Z,676.56
2022-09-09T00:40:37.409Z,676.55
2022-09-09T00:41:37.364Z,676.56
2022-09-09T00:42:37.356Z,676.56
2022-09-09T00:43:37.335Z,676.55
2022-09-09T00:44:37.340Z,676.56
2022-09-09T00:45:37.351Z,676.56
2022-09-09T00:46:37.359Z,676.56
2022-09-09T00:47:37.308Z,676.56
2022-09-09T00:48:37.288Z,676.56
2022-09-09T00:49:37.284Z,676.56
2022-09-09T00:50:37.736Z,676.56
2022-09-09T00:51:37.260Z,676.56
2022-09-09T00:52:37.276Z,676.56
2022-09-09T00:53:37.228Z,676.57
2022-09-09T00:54:37.229Z,676.56
2022-09-09T00:55:37.208Z,676.55
2022-09-09T00:56:37.208Z,676.56
2022-09-09T00:57:37.182Z,676.57
2022-09-09T00:58:37.200Z,676.56
2022-09-09T00:59:37.164Z,676.57
2022-09-09T01:00:37.185Z,676.56
2022-09-09T01:01:37.208Z,676.56
2022-09-09T01:02:37.181Z,676.56
2022-09-09T01:03:37.120Z,676.55
2022-09-09T01:04:37.122Z,676.55
2022-09-09T01:05:37.112Z,676.56
2022-09-09T01:06:37.100Z,676.56
2022-09-09T01:07:37.072Z,676.55
2022-09-09T01:08:37.071Z,676.56
2022-09-09T01:09:37.048Z,676.56
2022-09-09T01:10:37.360Z,676.56
2022-09-09T01:11:37.042Z,676.56
2022-09-09T01:12:37.061Z,676.57
2022-09-09T01:13:36.999Z,676.56
2022-09-09T01:14:37.035Z,676.57
2022-09-09T01:15:36.991Z,676.56
2022-09-09T01:16:37.071Z,676.57
2022-09-09T01:17:36.968Z,676.56
2022-09-09T01:18:37.140Z,676.57
2022-09-09T01:19:36.933Z,676.56
2022-09-09T01:20:36.941Z,676.57
2022-09-09T01:21:36.932Z,676.56
2022-09-09T01:22:36.912Z,676.57
2022-09-09T01:23:36.900Z,676.56
2022-09-09T01:24:36.913Z,676.56
2022-09-09T01:25:36.872Z,676.57
2022-09-09T01:26:36.876Z,676.56
2022-09-09T01:27:36.854Z,676.56
2022-09-09T01:28:36.901Z,676.56
2022-09-09T01:29:36.852Z,676.57
2022-09-09T01:30:36.929Z,676.57
2022-09-09T01:31:36.816Z,676.56
2022-09-09T01:32:36.805Z,676.56
2022-09-09T01:33:36.784Z,676.57
2022-09-09T01:34:36.805Z,676.56
2022-09-09T01:35:36.765Z,676.56
2022-09-09T01:36:36.766Z,676.55
2022-09-09T01:37:36.736Z,676.56
2022-09-09T01:38:36.858Z,676.56
2022-09-09T01:39:36.805Z,676.56
2022-09-09T01:40:36.725Z,676.57
2022-09-09T01:41:36.700Z,676.56
2022-09-09T01:42:36.704Z,676.56
2022-09-09T01:43:36.678Z,676.56
2022-09-09T01:44:36.685Z,676.56
2022-09-09T01:45:36.675Z,676.56
2022-09-09T01:46:36.659Z,676.56
2022-09-09T01:47:36.645Z,676.57
2022-09-09T01:48:36.748Z,676.56
2022-09-09T01:49:36.632Z,676.56
2022-09-09T01:50:36.605Z,676.56
2022-09-09T01:51:36.597Z,676.57
2022-09-09T01:52:36.589Z,676.56
2022-09-09T01:53:36.567Z,676.56
2022-09-09T01:54:36.564Z,676.57
2022-09-09T01:55:36.557Z,676.57
2022-09-09T01:56:36.544Z,676.57
2022-09-09T01:57:36.518Z,676.56
2022-09-09T01:58:36.672Z,676.57
2022-09-09T01:59:36.497Z,676.58
2022-09-09T02:00:36.509Z,676.57
2022-09-09T02:01:36.524Z,676.56
2022-09-09T02:02:36.514Z,676.56
2022-09-09T02:03:36.458Z,676.57
2022-09-09T02:04:36.449Z,676.57
2022-09-09T02:05:36.446Z,676.57
2022-09-09T02:06:36.434Z,676.58
2022-09-09T02:07:36.425Z,676.57
2022-09-09T02:08:36.548Z,676.57
2022-09-09T02:09:36.405Z,676.57
2022-09-09T02:10:36.401Z,676.56
2022-09-09T02:11:36.369Z,676.56
2022-09-09T02:12:36.378Z,676.57
2022-09-09T02:13:36.353Z,676.57
2022-09-09T02:14:36.349Z,676.57
2022-09-09T02:15:36.322Z,676.57
2022-09-09T02:16:36.372Z,676.58
2022-09-09T02:17:36.304Z,676.57
2022-09-09T02:18:36.359Z,676.57
2022-09-09T02:19:36.302Z,676.58
2022-09-09T02:20:36.281Z,676.58
2022-09-09T02:21:36.281Z,676.56
2022-09-09T02:22:36.257Z,676.57
2022-09-09T02:23:36.230Z,676.57
2022-09-09T02:24:36.242Z,676.56
2022-09-09T02:25:36.221Z,676.57
2022-09-09T02:26:36.351Z,676.57
2022-09-09T02:27:36.190Z,676.56
2022-09-09T02:28:36.417Z,676.57
2022-09-09T02:29:36.163Z,676.58
2022-09-09T02:30:36.217Z,676.58
2022-09-09T02:31:36.137Z,676.57
2022-09-09T02:32:36.165Z,676.57
2022-09-09T02:33:36.121Z,676.58
2022-09-09T02:34:36.122Z,676.56
2022-09-09T02:35:36.119Z,676.57
2022-09-09T02:36:36.101Z,676.56
2022-09-09T02:37:36.092Z,676.57
2022-09-09T02:38:36.310Z,676.57
2022-09-09T02:39:36.081Z,676.55
2022-09-09T02:40:36.053Z,676.57
2022-09-09T02:41:36.035Z,676.57
2022-09-09T02:42:36.053Z,676.57
2022-09-09T02:43:36.021Z,676.56
2022-09-09T02:44:36.014Z,676.57
2022-09-09T02:45:36.023Z,676.57
2022-09-09T02:46:35.994Z,676.57
2022-09-09T02:47:35.973Z,676.57
2022-09-09T02:48:36.077Z,676.58
2022-09-09T02:49:35.945Z,676.57
2022-09-09T02:50:35.945Z,676.57
2022-09-09T02:51:35.921Z,676.57
2022-09-09T02:52:35.953Z,676.57
2022-09-09T02:53:35.903Z,676.56
2022-09-09T02:54:35.898Z,676.57
2022-09-09T02:55:35.882Z,676.56
2022-09-09T02:56:35.898Z,676.57
2022-09-09T02:57:35.866Z,676.57
2022-09-09T02:58:35.918Z,676.58
2022-09-09T02:59:35.887Z,676.58
2022-09-09T03:00:35.834Z,676.58
2022-09-09T03:01:35.933Z,676.57
2022-09-09T03:02:35.898Z,676.57
2022-09-09T03:03:35.797Z,676.57
2022-09-09T03:04:35.782Z,676.57
2022-09-09T03:05:35.782Z,676.57
2022-09-09T03:06:35.758Z,676.57
2022-09-09T03:07:35.783Z,676.57
2022-09-09T03:08:35.897Z,676.57
2022-09-09T03:09:35.863Z,676.58
2022-09-09T03:10:35.720Z,676.57
2022-09-09T03:11:35.711Z,676.57
2022-09-09T03:12:35.698Z,676.57
2022-09-09T03:13:35.777Z,676.57
2022-09-09T03:14:35.730Z,676.58
2022-09-09T03:15:35.746Z,676.58
2022-09-09T03:16:35.869Z,676.57
2022-09-09T03:17:35.746Z,676.58
2022-09-09T03:18:35.832Z,676.56
2022-09-09T03:19:36.018Z,676.59
2022-09-09T03:20:35.811Z,676.58
2022-09-09T03:21:35.750Z,676.57
2022-09-09T03:22:35.770Z,676.58
2022-09-09T03:23:35.782Z,676.58
2022-09-09T03:24:35.790Z,676.58
2022-09-09T03:25:35.674Z,676.57
2022-09-09T03:26:35.748Z,676.57
2022-09-09T03:27:35.653Z,676.58
2022-09-09T03:28:35.700Z,676.58
2022-09-09T03:29:35.821Z,676.57
2022-09-09T03:30:35.490Z,676.59
2022-09-09T03:31:35.536Z,676.58
2022-09-09T03:32:35.470Z,676.58
2022-09-09T03:33:35.502Z,676.58
2022-09-09T03:34:35.462Z,676.59
2022-09-09T03:35:35.459Z,676.56
2022-09-09T03:36:35.418Z,676.58
2022-09-09T03:37:35.430Z,676.58
2022-09-09T03:38:35.593Z,676.57
2022-09-09T03:39:35.865Z,676.58
2022-09-09T03:40:35.399Z,676.58
2022-09-09T03:41:35.413Z,676.57
2022-09-09T03:42:35.359Z,676.57
2022-09-09T03:43:35.364Z,676.57
2022-09-09T03:44:35.359Z,676.57
2022-09-09T03:45:35.446Z,676.57
2022-09-09T03:46:35.321Z,676.57
2022-09-09T03:47:35.311Z,676.59
2022-09-09T03:48:35.372Z,676.58
2022-09-09T03:49:35.292Z,676.57
2022-09-09T03:50:35.283Z,676.58
2022-09-09T03:51:35.276Z,676.59
2022-09-09T03:52:35.247Z,676.57
2022-09-09T03:53:35.243Z,676.57
2022-09-09T03:54:35.232Z,676.59
2022-09-09T03:55:35.245Z,676.58
2022-09-09T03:56:35.223Z,676.57
2022-09-09T03:57:35.199Z,676.59
2022-09-09T03:58:35.335Z,676.60
2022-09-09T03:59:35.175Z,676.59
2022-09-09T04:00:35.163Z,676.58
2022-09-09T04:01:35.228Z,676.58
2022-09-09T04:02:35.235Z,676.58
2022-09-09T04:03:35.123Z,676.57
2022-09-09T04:04:35.116Z,676.59
2022-09-09T04:05:35.115Z,676.59
2022-09-09T04:06:35.106Z,676.59
2022-09-09T04:07:35.083Z,676.58
2022-09-09T04:08:35.354Z,676.58
2022-09-09T04:09:35.068Z,676.59
2022-09-09T04:10:35.048Z,676.58
2022-09-09T04:11:35.067Z,676.58
2022-09-09T04:12:35.028Z,676.58
2022-09-09T04:13:35.124Z,676.58
2022-09-09T04:14:35.056Z,676.60
2022-09-09T04:15:35.130Z,676.58
2022-09-09T04:16:35.218Z,676.58
2022-09-09T04:17:35.086Z,676.58
2022-09-09T04:18:35.219Z,676.58
2022-09-09T04:19:35.210Z,676.57
2022-09-09T04:20:34.938Z,676.61
2022-09-09T04:21:34.945Z,676.59
2022-09-09T04:22:34.914Z,676.58
2022-09-09T04:23:34.906Z,676.58
2022-09-09T04:24:34.890Z,676.58
2022-09-09T04:25:34.885Z,676.58
2022-09-09T04:26:35.011Z,676.58
2022-09-09T04:27:34.859Z,676.58
2022-09-09T04:28:34.943Z,676.57
2022-09-09T04:29:34.859Z,676.58
2022-09-09T04:30:34.832Z,676.58
2022-09-09T04:31:34.875Z,676.57
2022-09-09T04:32:34.798Z,676.57
2022-09-09T04:33:39.462Z,676.57
2022-09-09T04:34:35.787Z,676.58
2022-09-09T04:35:34.771Z,676.57
2022-09-09T04:36:34.775Z,676.59
2022-09-09T04:37:34.766Z,676.58
2022-09-09T04:38:34.730Z,676.58
2022-09-09T04:39:34.768Z,676.60
2022-09-09T04:40:34.710Z,676.58
2022-09-09T04:41:34.718Z,676.58
2022-09-09T04:42:34.691Z,676.57
2022-09-09T04:43:34.699Z,676.59
2022-09-09T04:44:34.660Z,676.58
2022-09-09T04:45:34.757Z,676.57
2022-09-09T04:46:34.678Z,676.58
2022-09-09T04:47:34.659Z,676.57
2022-09-09T04:48:34.666Z,676.58
2022-09-09T04:49:34.618Z,676.58
2022-09-09T04:50:34.602Z,676.58
2022-09-09T04:51:34.603Z,676.59
2022-09-09T04:52:34.602Z,676.58
2022-09-09T04:53:34.570Z,676.59
2022-09-09T04:54:34.550Z,676.59
2022-09-09T04:55:34.551Z,676.58
2022-09-09T04:56:34.523Z,676.58
2022-09-09T04:57:34.542Z,676.58
2022-09-09T04:58:34.588Z,676.59
2022-09-09T04:59:34.511Z,676.58
2022-09-09T05:00:34.525Z,676.58
2022-09-09T05:01:34.483Z,676.58
2022-09-09T05:02:34.545Z,676.57
2022-09-09T05:03:34.463Z,676.58
2022-09-09T05:04:34.435Z,676.58
2022-09-09T05:05:34.444Z,676.58
2022-09-09T05:06:41.727Z,676.57
2022-09-09T05:07:34.418Z,676.57
2022-09-09T05:08:34.450Z,676.59
2022-09-09T05:09:34.387Z,676.59
2022-09-09T05:10:34.406Z,676.58
2022-09-09T05:11:34.367Z,676.57
2022-09-09T05:12:34.379Z,676.59
2022-09-09T05:13:37.326Z,676.59
2022-09-09T05:14:35.327Z,676.59
2022-09-09T05:15:34.375Z,676.58
2022-09-09T05:16:34.586Z,676.57
2022-09-09T05:17:34.408Z,676.59
2022-09-09T05:18:34.413Z,676.57
2022-09-09T05:19:34.459Z,676.58
2022-09-09T05:20:34.408Z,676.59
2022-09-09T05:21:34.411Z,676.57
2022-09-09T05:22:34.440Z,676.58
2022-09-09T05:23:34.440Z,676.58
2022-09-09T05:24:34.435Z,676.57
2022-09-09T05:25:34.431Z,676.58
2022-09-09T05:26:34.587Z,676.58
2022-09-09T05:27:34.492Z,676.58
2022-09-09T05:28:41.232Z,676.57
2022-09-09T05:29:34.165Z,676.56
2022-09-09T05:30:34.131Z,676.58
2022-09-09T05:31:34.236Z,676.57
2022-09-09T05:32:34.184Z,676.58
2022-09-09T05:33:34.126Z,676.59
2022-09-09T05:34:34.092Z,676.58
2022-09-09T05:35:34.124Z,676.57
2022-09-09T05:36:34.072Z,676.58
2022-09-09T05:37:34.171Z,676.58
2022-09-09T05:38:34.050Z,676.58
2022-09-09T05:39:34.094Z,676.57
2022-09-09T05:40:34.023Z,676.57
2022-09-09T05:41:34.026Z,676.58
2022-09-09T05:42:34.012Z,676.58
2022-09-09T05:43:34.036Z,676.59
2022-09-09T05:44:33.984Z,676.58
2022-09-09T05:45:33.984Z,676.58
2022-09-09T05:46:34.010Z,676.57
2022-09-09T05:47:33.966Z,676.58
2022-09-09T05:48:34.321Z,676.58
2022-09-09T05:49:33.955Z,676.59
2022-09-09T05:50:33.927Z,676.58
2022-09-09T05:51:33.916Z,676.57
2022-09-09T05:52:33.899Z,676.57
2022-09-09T05:53:33.895Z,676.58
2022-09-09T05:54:33.904Z,676.58
2022-09-09T05:55:33.877Z,676.57
2022-09-09T05:56:33.937Z,676.57
2022-09-09T05:57:33.844Z,676.58
2022-09-09T05:58:33.837Z,676.57
2022-09-09T05:59:33.836Z,676.56
2022-09-09T06:00:33.816Z,676.57
2022-09-09T06:01:33.964Z,676.58
2022-09-09T06:02:33.889Z,676.58
2022-09-09T06:03:33.788Z,676.57
2022-09-09T06:04:33.756Z,676.57
2022-09-09T06:05:33.895Z,676.57
2022-09-09T06:06:33.736Z,676.57
2022-09-09T06:07:33.736Z,676.58
2022-09-09T06:08:33.730Z,676.57
2022-09-09T06:09:33.708Z,676.57
2022-09-09T06:10:33.696Z,676.58
2022-09-09T06:11:33.708Z,676.58
2022-09-09T06:12:33.668Z,676.56
2022-09-09T06:13:33.679Z,676.58
2022-09-09T06:14:33.648Z,676.57
2022-09-09T06:15:33.650Z,676.57
2022-09-09T06:16:33.815Z,676.57
2022-09-09T06:17:33.624Z,676.58
2022-09-09T06:18:33.662Z,676.57
2022-09-09T06:19:33.612Z,676.58
2022-09-09T06:20:33.588Z,676.57
2022-09-09T06:21:33.629Z,676.59
2022-09-09T06:22:33.548Z,676.57
2022-09-09T06:23:33.560Z,676.58
2022-09-09T06:24:33.532Z,676.57
2022-09-09T06:25:33.540Z,676.58
2022-09-09T06:26:33.528Z,676.58
2022-09-09T06:27:33.509Z,676.58
2022-09-09T06:28:33.489Z,676.58
2022-09-09T06:29:33.505Z,676.58
2022-09-09T06:30:33.472Z,676.58
2022-09-09T06:31:33.514Z,676.57
2022-09-09T06:32:33.446Z,676.57
2022-09-09T06:33:33.441Z,676.58
2022-09-09T06:34:33.420Z,676.58
2022-09-09T06:35:33.413Z,676.58
2022-09-09T06:36:33.413Z,676.57
2022-09-09T06:37:33.400Z,676.57
2022-09-09T06:38:33.476Z,676.58
2022-09-09T06:39:33.405Z,676.58
2022-09-09T06:40:33.360Z,676.58
2022-09-09T06:41:33.352Z,676.57
2022-09-09T06:42:33.341Z,676.57
2022-09-09T06:43:33.344Z,676.57
2022-09-09T06:44:35.244Z,676.58
2022-09-09T06:45:33.305Z,676.56
2022-09-09T06:46:33.349Z,676.57
2022-09-09T06:47:33.305Z,676.59
2022-09-09T06:48:33.363Z,676.57
2022-09-09T06:49:33.285Z,676.58
2022-09-09T06:50:33.244Z,676.57
2022-09-09T06:51:33.244Z,676.58
2022-09-09T06:52:33.245Z,676.57
2022-09-09T06:53:33.225Z,676.57
2022-09-09T06:54:33.197Z,676.58
2022-09-09T06:55:33.196Z,676.57
2022-09-09T06:56:33.182Z,676.57
2022-09-09T06:57:37.372Z,676.58
2022-09-09T06:58:33.226Z,676.58
2022-09-09T06:59:33.153Z,676.57
2022-09-09T07:00:33.173Z,676.57
2022-09-09T07:01:33.155Z,676.57
2022-09-09T07:02:33.117Z,676.57
2022-09-09T07:03:33.118Z,676.57
2022-09-09T07:04:33.093Z,676.57
2022-09-09T07:05:33.097Z,676.58
2022-09-09T07:06:33.065Z,676.58
2022-09-09T07:07:33.057Z,676.57
2022-09-09T07:08:33.053Z,676.57
2022-09-09T07:09:33.081Z,676.57
2022-09-09T07:10:33.038Z,676.58
2022-09-09T07:11:33.013Z,676.57
2022-09-09T07:12:32.997Z,676.58
2022-09-09T07:13:32.993Z,676.57
2022-09-09T07:14:32.986Z,676.58
2022-09-09T07:15:32.958Z,676.57
2022-09-09T07:16:32.991Z,676.58
2022-09-09T07:17:32.966Z,676.57
2022-09-09T07:18:32.986Z,676.58
2022-09-09T07:19:32.937Z,676.57
2022-09-09T07:20:32.917Z,676.57
2022-09-09T07:21:32.915Z,676.57
2022-09-09T07:22:32.890Z,676.58
2022-09-09T07:23:36.125Z,676.58
2022-09-09T07:24:32.869Z,676.58
2022-09-09T07:25:32.886Z,676.57
2022-09-09T07:26:32.858Z,676.57
2022-09-09T07:27:32.830Z,676.57
2022-09-09T07:28:32.873Z,676.57
2022-09-09T07:29:32.809Z,676.57
2022-09-09T07:30:32.809Z,676.57
2022-09-09T07:31:32.814Z,676.56
2022-09-09T07:32:32.781Z,676.57
2022-09-09T07:33:32.800Z,676.57
2022-09-09T07:34:32.767Z,676.57
2022-09-09T07:35:32.750Z,676.56
2022-09-09T07:36:33.733Z,676.56
2022-09-09T07:37:32.781Z,676.57
2022-09-09T07:38:32.795Z,676.57
2022-09-09T07:39:32.733Z,676.57
2022-09-09T07:40:32.689Z,676.57
2022-09-09T07:41:32.682Z,676.57
2022-09-09T07:42:32.674Z,676.57
2022-09-09T07:43:32.649Z,676.57
2022-09-09T07:44:32.649Z,676.57
2022-09-09T07:45:32.642Z,676.57
2022-09-09T07:46:32.671Z,676.56
2022-09-09T07:47:32.621Z,676.56
2022-09-09T07:48:32.640Z,676.57
2022-09-09T07:49:33.072Z,676.56
2022-09-09T07:50:32.594Z,676.57
2022-09-09T07:51:32.561Z,676.57
2022-09-09T07:52:32.561Z,676.57
2022-09-09T07:53:32.579Z,676.56
2022-09-09T07:54:32.967Z,676.57
2022-09-09T07:55:32.513Z,676.56
2022-09-09T07:56:33.688Z,676.57
2022-09-09T07:57:32.502Z,676.56
2022-09-09T07:58:37.714Z,676.56
2022-09-09T07:59:33.487Z,676.56
2022-09-09T08:00:32.478Z,676.57
2022-09-09T08:01:32.509Z,676.56
2022-09-09T08:02:32.454Z,676.56
2022-09-09T08:03:32.426Z,676.55
2022-09-09T08:04:32.426Z,676.56
2022-09-09T08:05:32.415Z,676.56
2022-09-09T08:06:32.405Z,676.56
2022-09-09T08:07:32.398Z,676.56
2022-09-09T08:08:32.387Z,676.56
2022-09-09T08:09:32.376Z,676.55
2022-09-09T08:10:32.389Z,676.56
2022-09-09T08:11:36.679Z,676.55
2022-09-09T08:12:34.897Z,676.56
2022-09-09T08:13:32.378Z,676.56
2022-09-09T08:14:32.326Z,676.55
2022-09-09T08:15:32.298Z,676.55
2022-09-09T08:16:32.287Z,676.55
2022-09-09T08:17:32.330Z,676.55
2022-09-09T08:18:32.266Z,676.55
2022-09-09T08:19:32.258Z,676.56
2022-09-09T08:20:32.270Z,676.55
2022-09-09T08:21:32.230Z,676.55
2022-09-09T08:22:32.238Z,676.55
2022-09-09T08:23:32.210Z,676.56
2022-09-09T08:24:32.204Z,676.55
2022-09-09T08:25:32.178Z,676.57
2022-09-09T08:26:32.210Z,676.56
2022-09-09T08:27:32.178Z,676.56
2022-09-09T08:28:32.157Z,676.56
2022-09-09T08:29:32.139Z,676.56
2022-09-09T08:30:32.136Z,676.55
2022-09-09T08:31:32.123Z,676.55
2022-09-09T08:32:32.290Z,676.55
2022-09-09T08:33:32.109Z,676.55
2022-09-09T08:34:32.098Z,676.55
2022-09-09T08:35:32.062Z,676.55
2022-09-09T08:36:32.082Z,676.56
2022-09-09T08:37:32.063Z,676.56
2022-09-09T08:38:32.050Z,676.55
2022-09-09T08:39:32.050Z,676.55
2022-09-09T08:40:32.022Z,676.55
2022-09-09T08:41:32.012Z,676.55
2022-09-09T08:42:32.010Z,676.56
2022-09-09T08:43:32.173Z,676.56
2022-09-09T08:44:31.982Z,676.55
2022-09-09T08:45:31.970Z,676.56
2022-09-09T08:46:32.776Z,676.57
2022-09-09T08:47:34.053Z,676.56
2022-09-09T08:48:31.944Z,676.56
2022-09-09T08:49:31.914Z,676.54
2022-09-09T08:50:31.915Z,676.55
2022-09-09T08:51:31.895Z,676.56
2022-09-09T08:52:31.903Z,676.53
2022-09-09T08:53:31.896Z,676.56
2022-09-09T08:54:50.988Z,676.55
2022-09-09T08:55:32.843Z,676.55
2022-09-09T08:56:31.851Z,676.55
2022-09-09T08:57:31.824Z,676.54
2022-09-09T08:58:31.835Z,676.56
2022-09-09T08:59:31.814Z,676.55
2022-09-09T09:00:31.807Z,676.55
2022-09-09T09:01:31.871Z,676.56
2022-09-09T09:02:31.795Z,676.55
2022-09-09T09:03:31.774Z,676.55
2022-09-09T09:04:31.820Z,676.55
2022-09-09T09:05:31.735Z,676.56
2022-09-09T09:06:31.749Z,676.55
2022-09-09T09:07:33.019Z,676.54
2022-09-09T09:08:31.727Z,676.54
2022-09-09T09:09:31.695Z,676.54
2022-09-09T09:10:41.780Z,676.55
2022-09-09T09:11:32.675Z,676.54
2022-09-09T09:12:31.663Z,676.53
2022-09-09T09:13:31.667Z,676.56
2022-09-09T09:14:31.758Z,676.56
2022-09-09T09:15:32.704Z,676.55
2022-09-09T09:16:31.627Z,676.56
2022-09-09T09:17:31.608Z,676.56
2022-09-09T09:18:31.619Z,676.55
2022-09-09T09:19:31.587Z,676.55
2022-09-09T09:20:31.578Z,676.55
2022-09-09T09:21:31.560Z,676.55
2022-09-09T09:22:31.559Z,676.55
2022-09-09T09:23:31.561Z,676.56
2022-09-09T09:24:31.528Z,676.54
2022-09-09T09:25:31.512Z,676.54
2022-09-09T09:26:31.576Z,676.56
2022-09-09T09:27:31.499Z,676.55
2022-09-09T09:28:31.511Z,676.54
2022-09-09T09:29:31.480Z,676.54
2022-09-09T09:30:31.524Z,676.54
2022-09-09T09:31:31.499Z,676.54
2022-09-09T09:32:31.459Z,676.55
2022-09-09T09:33:31.423Z,676.53
2022-09-09T09:34:31.443Z,676.54
2022-09-09T09:35:31.402Z,676.53
2022-09-09T09:36:31.403Z,676.53
2022-09-09T09:37:31.602Z,676.53
2022-09-09T09:40:32.375Z,676.55
2022-09-09T09:41:31.332Z,676.51
2022-09-09T09:42:31.323Z,676.55
2022-09-09T09:43:31.311Z,676.54
2022-09-09T09:44:31.325Z,676.53
2022-09-09T09:45:31.291Z,676.53
2022-09-09T09:46:31.345Z,676.55
2022-09-09T09:47:31.275Z,676.53
2022-09-09T09:48:31.296Z,676.53
2022-09-09T09:49:31.255Z,676.53
2022-09-09T09:50:31.256Z,676.54
2022-09-09T09:51:31.235Z,676.55
2022-09-09T09:52:31.226Z,676.53
2022-09-09T09:53:31.224Z,676.53
2022-09-09T09:54:31.203Z,676.54
2022-09-09T09:55:31.183Z,676.52
2022-09-09T09:56:31.226Z,676.53
2022-09-09T09:57:31.169Z,676.54
2022-09-09T09:58:31.168Z,676.54
2022-09-09T09:59:40.002Z,676.54
2022-09-09T10:00:32.135Z,676.54
2022-09-09T10:01:31.906Z,676.55
2022-09-09T10:02:31.108Z,676.54
2022-09-09T10:03:31.096Z,676.53
2022-09-09T10:04:31.142Z,676.54
2022-09-09T10:05:35.810Z,676.54
2022-09-09T10:06:32.135Z,676.54
2022-09-09T10:07:31.041Z,676.53
2022-09-09T10:08:31.049Z,676.53
2022-09-09T10:09:31.049Z,676.52
2022-09-09T10:10:31.028Z,676.54
2022-09-09T10:11:31.007Z,676.53
2022-09-09T10:12:31.035Z,676.55
2022-09-09T10:13:30.991Z,676.52
2022-09-09T10:14:30.999Z,676.52
2022-09-09T10:15:30.993Z,676.52
2022-09-09T10:16:30.960Z,676.55
2022-09-09T10:17:30.972Z,676.55
2022-09-09T10:18:30.952Z,676.53
2022-09-09T10:19:30.912Z,676.55
2022-09-09T10:20:30.920Z,676.55
2022-09-09T10:21:33.253Z,676.55
2022-09-09T10:22:30.895Z,676.54
2022-09-09T10:23:30.909Z,676.53
2022-09-09T10:24:30.872Z,676.53
2022-09-09T10:25:30.860Z,676.54
2022-09-09T10:26:30.856Z,676.52
2022-09-09T10:27:30.825Z,676.55
2022-09-09T10:28:30.824Z,676.55
2022-09-09T10:29:30.815Z,676.52
2022-09-09T10:30:30.812Z,676.53
2022-09-09T10:31:30.819Z,676.53
2022-09-09T10:32:30.784Z,676.53
2022-09-09T10:33:32.655Z,676.55
2022-09-09T10:34:31.615Z,676.53
2022-09-09T10:35:30.752Z,676.52
2022-09-09T10:36:30.739Z,676.55
2022-09-09T10:37:30.704Z,676.54
2022-09-09T10:38:30.705Z,676.54
2022-09-09T10:39:30.713Z,676.54
2022-09-09T10:40:30.697Z,676.53
2022-09-09T10:41:30.669Z,676.54
2022-09-09T10:42:30.677Z,676.54
2022-09-09T10:43:30.644Z,676.53
2022-09-09T10:44:30.644Z,676.54
2022-09-09T10:45:30.649Z,676.54
2022-09-09T10:46:30.715Z,676.54
2022-09-09T10:47:30.596Z,676.50
2022-09-09T10:48:30.597Z,676.53
2022-09-09T10:49:30.642Z,676.54
2022-09-09T10:50:50.373Z,676.53
2022-09-09T10:51:31.569Z,676.54
2022-09-09T10:52:30.584Z,676.54
2022-09-09T10:53:30.536Z,676.52
2022-09-09T10:54:30.531Z,676.54
2022-09-09T10:55:30.508Z,676.54
2022-09-09T10:56:30.528Z,676.54
2022-09-09T10:57:30.501Z,676.55
2022-09-09T10:58:30.490Z,676.54
2022-09-09T10:59:30.470Z,676.50
2022-09-09T11:00:30.469Z,676.52
2022-09-09T11:01:30.511Z,676.54
2022-09-09T11:02:30.453Z,676.54
2022-09-09T11:03:30.430Z,676.53
2022-09-09T11:04:30.441Z,676.53
2022-09-09T11:05:30.413Z,676.53
2022-09-09T11:06:30.450Z,676.51
2022-09-09T11:07:30.385Z,676.54
2022-09-09T11:08:30.393Z,676.52
2022-09-09T11:09:30.375Z,676.54
2022-09-09T11:10:30.361Z,676.54
2022-09-09T11:11:30.340Z,676.53
2022-09-09T11:12:30.333Z,676.51
2022-09-09T11:13:30.313Z,676.54
2022-09-09T11:14:34.053Z,676.52
2022-09-09T11:15:31.298Z,676.53
2022-09-09T11:16:30.340Z,676.50
2022-09-09T11:17:30.273Z,676.53
2022-09-09T11:18:30.385Z,676.50
2022-09-09T11:19:30.277Z,676.52
2022-09-09T11:20:30.245Z,676.53
2022-09-09T11:21:37.297Z,676.52
2022-09-09T11:22:30.229Z,676.53
2022-09-09T11:23:30.229Z,676.55
2022-09-09T11:24:30.209Z,676.54
2022-09-09T11:25:30.209Z,676.54
2022-09-09T11:26:30.197Z,676.54
2022-09-09T11:27:30.189Z,676.51
2022-09-09T11:28:30.202Z,676.55
2022-09-09T11:29:30.161Z,676.53
2022-09-09T11:30:54.971Z,676.55
2022-09-09T11:31:31.164Z,676.53
2022-09-09T11:32:30.129Z,676.51
2022-09-09T11:33:30.113Z,676.53
2022-09-09T11:34:30.132Z,676.53
2022-09-09T11:35:30.133Z,676.53
2022-09-09T11:36:37.243Z,676.52
2022-09-09T11:37:30.069Z,676.54
2022-09-09T11:38:30.106Z,676.53
2022-09-09T11:39:30.074Z,676.54
2022-09-09T11:40:30.030Z,676.54
2022-09-09T11:41:30.050Z,676.53
2022-09-09T11:42:30.021Z,676.53
2022-09-09T11:43:30.012Z,676.53
2022-09-09T11:44:30.041Z,676.53
2022-09-09T11:45:29.982Z,676.54
2022-09-09T11:46:30.011Z,676.54
2022-09-09T11:47:29.981Z,676.54
2022-09-09T11:48:29.942Z,676.55
2022-09-09T11:49:29.942Z,676.53
2022-09-09T11:50:29.926Z,676.55
2022-09-09T11:51:29.922Z,676.53
2022-09-09T11:52:29.910Z,676.56
2022-09-09T11:53:29.895Z,676.56
2022-09-09T11:54:29.889Z,676.52
2022-09-09T11:55:29.876Z,676.52
2022-09-09T11:56:29.849Z,676.54
2022-09-09T11:57:29.853Z,676.55
2022-09-09T11:58:29.847Z,676.55
2022-09-09T11:59:29.829Z,676.53
2022-09-09T12:00:29.807Z,676.54
2022-09-09T12:01:29.821Z,676.53
2022-09-09T12:02:29.826Z,676.54
2022-09-09T12:03:29.801Z,676.54
2022-09-09T12:04:29.985Z,676.54
2022-09-09T12:05:29.782Z,676.54
2022-09-09T12:06:29.755Z,676.52
2022-09-09T12:07:29.758Z,676.55
2022-09-09T12:08:29.777Z,676.54
2022-09-09T12:09:29.725Z,676.55
2022-09-09T12:10:29.707Z,676.55
2022-09-09T12:11:29.696Z,676.55
2022-09-09T12:12:29.694Z,676.56
2022-09-09T12:13:29.698Z,676.55
2022-09-09T12:14:29.654Z,676.55
2022-09-09T12:15:29.658Z,676.55
2022-09-09T12:16:29.676Z,676.55
2022-09-09T12:17:29.627Z,676.55
2022-09-09T12:18:29.688Z,676.53
2022-09-09T12:19:29.607Z,676.54
2022-09-09T12:20:29.598Z,676.55
2022-09-09T12:21:29.590Z,676.54
2022-09-09T12:22:29.604Z,676.54
2022-09-09T12:23:30.606Z,676.55
2022-09-09T12:24:29.554Z,676.54
2022-09-09T12:25:29.550Z,676.55
2022-09-09T12:26:29.526Z,676.54
2022-09-09T12:27:29.845Z,676.56
2022-09-09T12:28:29.531Z,676.54
2022-09-09T12:29:30.452Z,676.57
2022-09-09T12:30:29.519Z,676.54